createdAt,value
2018-07-28T00:00:33.250Z,25.70
2018-07-28T00:03:01.020Z,25.70
2018-07-28T00:05:28.730Z,25.60
2018-07-28T00:07:56.428Z,25.60
2018-07-28T00:10:24.210Z,25.70
2018-07-28T00:12:51.890Z,25.70
2018-07-28T00:15:19.555Z,25.70
2018-07-28T00:17:47.220Z,25.70
2018-07-28T00:20:14.921Z,25.60
2018-07-28T00:22:42.608Z,25.60
2018-07-28T00:25:11.291Z,25.50
2018-07-28T00:27:39.067Z,25.50
2018-07-28T00:30:08.951Z,25.40
2018-07-28T00:32:36.656Z,25.40
2018-07-28T00:35:04.424Z,25.40
2018-07-28T00:37:32.123Z,25.30
2018-07-28T00:39:59.779Z,25.30
2018-07-28T00:42:27.426Z,25.30
2018-07-28T00:44:55.155Z,25.30
2018-07-28T00:47:22.964Z,25.20
2018-07-28T00:49:50.644Z,25.10
2018-07-28T00:52:18.299Z,25.10
2018-07-28T00:54:46.013Z,25.00
2018-07-28T00:57:13.674Z,25.00
2018-07-28T00:59:41.351Z,25.00
2018-07-28T01:02:08.996Z,25.00
2018-07-28T01:04:36.675Z,25.00
2018-07-28T01:07:04.365Z,24.90
2018-07-28T01:09:32.047Z,24.80
2018-07-28T01:11:59.712Z,24.80
2018-07-28T01:14:27.418Z,24.70
2018-07-28T01:16:55.075Z,24.80
2018-07-28T01:19:22.782Z,24.80
2018-07-28T01:21:50.444Z,24.70
2018-07-28T01:24:18.114Z,24.70
2018-07-28T01:26:45.755Z,24.70
2018-07-28T01:29:16.848Z,24.70
2018-07-28T01:31:45.517Z,24.70
2018-07-28T01:34:13.192Z,24.70
2018-07-28T01:36:40.891Z,24.70
2018-07-28T01:39:11.380Z,24.70
2018-07-28T01:41:39.468Z,24.70
2018-07-28T01:44:07.529Z,24.70
2018-07-28T01:46:35.180Z,24.60
2018-07-28T01:49:03.011Z,24.60
2018-07-28T01:51:30.651Z,24.60
2018-07-28T01:53:58.348Z,24.50
2018-07-28T01:56:25.992Z,24.50
2018-07-28T01:58:53.655Z,24.50
2018-07-28T02:01:21.375Z,24.50
2018-07-28T02:03:49.111Z,24.50
2018-07-28T02:06:16.827Z,24.40
2018-07-28T02:08:44.479Z,24.40
2018-07-28T02:11:12.189Z,24.40
2018-07-28T02:13:40.293Z,24.40
2018-07-28T02:16:07.982Z,24.40
2018-07-28T02:18:35.778Z,24.40
2018-07-28T02:21:03.656Z,24.40
2018-07-28T02:23:31.304Z,24.30
2018-07-28T02:25:59.010Z,24.30
2018-07-28T02:28:26.663Z,24.20
2018-07-28T02:30:54.396Z,24.20
2018-07-28T02:33:22.064Z,24.20
2018-07-28T02:35:49.836Z,24.20
2018-07-28T02:38:17.583Z,24.20
2018-07-28T02:40:45.247Z,24.20
2018-07-28T02:43:13.479Z,24.20
2018-07-28T02:45:41.288Z,24.10
2018-07-28T02:48:08.943Z,24.10
2018-07-28T02:50:36.633Z,24.00
2018-07-28T02:53:04.640Z,24.00
2018-07-28T02:55:32.376Z,24.00
2018-07-28T02:58:00.128Z,24.00
2018-07-28T03:00:27.812Z,24.00
2018-07-28T03:02:55.525Z,24.00
2018-07-28T03:05:23.218Z,24.00
2018-07-28T03:07:50.941Z,24.00
2018-07-28T03:10:18.623Z,23.90
2018-07-28T03:12:46.307Z,23.90
2018-07-28T03:15:25.363Z,23.90
2018-07-28T03:17:53.107Z,23.90
2018-07-28T03:20:20.811Z,23.80
2018-07-28T03:22:48.451Z,23.80
2018-07-28T03:25:16.125Z,23.80
2018-07-28T03:27:43.788Z,23.80
2018-07-28T03:30:11.492Z,23.70
2018-07-28T03:32:39.192Z,23.60
2018-07-28T03:35:06.887Z,23.60
2018-07-28T03:37:34.900Z,23.60
2018-07-28T03:40:02.701Z,23.60
2018-07-28T03:42:30.570Z,23.60
2018-07-28T03:44:58.236Z,23.50
2018-07-28T03:47:25.970Z,23.40
2018-07-28T03:49:53.627Z,23.50
2018-07-28T03:52:21.280Z,23.50
2018-07-28T03:54:48.968Z,23.50
2018-07-28T03:57:16.602Z,23.50
2018-07-28T03:59:44.374Z,23.50
2018-07-28T04:02:12.029Z,23.50
2018-07-28T04:04:39.776Z,23.50
2018-07-28T04:07:07.436Z,23.50
2018-07-28T04:09:35.107Z,23.50
2018-07-28T04:12:02.761Z,23.50
2018-07-28T04:14:30.525Z,23.40
2018-07-28T04:16:58.105Z,23.40
2018-07-28T04:19:25.756Z,23.40
2018-07-28T04:21:53.472Z,23.40
2018-07-28T04:24:21.270Z,23.30
2018-07-28T04:26:48.931Z,23.20
2018-07-28T04:29:16.544Z,23.20
2018-07-28T04:31:44.187Z,23.20
2018-07-28T04:34:11.855Z,23.10
2018-07-28T04:36:39.533Z,23.00
2018-07-28T04:39:08.686Z,22.90
2018-07-28T04:41:36.435Z,22.90
2018-07-28T04:44:04.186Z,23.00
2018-07-28T04:46:31.837Z,23.00
2018-07-28T04:48:59.479Z,23.10
2018-07-28T04:51:27.129Z,23.00
2018-07-28T04:53:54.786Z,23.00
2018-07-28T04:56:22.427Z,23.00
2018-07-28T04:58:50.092Z,23.10
2018-07-28T05:01:17.779Z,23.20
2018-07-28T05:03:45.428Z,23.30
2018-07-28T05:06:13.039Z,23.50
2018-07-28T05:08:40.687Z,23.60
2018-07-28T05:11:08.339Z,23.70
2018-07-28T05:13:36.100Z,23.70
2018-07-28T05:16:03.864Z,23.80
2018-07-28T05:18:31.690Z,23.80
2018-07-28T05:20:59.339Z,23.80
2018-07-28T05:23:27.012Z,23.90
2018-07-28T05:25:54.675Z,23.90
2018-07-28T05:28:22.343Z,23.90
2018-07-28T05:30:50.020Z,24.00
2018-07-28T05:33:17.665Z,24.10
2018-07-28T05:35:45.339Z,24.10
2018-07-28T05:38:12.999Z,24.20
2018-07-28T05:40:40.647Z,24.30
2018-07-28T05:43:08.347Z,24.30
2018-07-28T05:45:36.048Z,24.30
2018-07-28T05:48:03.663Z,24.30
2018-07-28T05:50:31.344Z,24.40
2018-07-28T05:52:58.979Z,24.30
2018-07-28T05:55:26.615Z,24.30
2018-07-28T05:57:54.252Z,24.40
2018-07-28T06:00:21.930Z,24.40
2018-07-28T06:02:49.614Z,24.50
2018-07-28T06:05:17.269Z,24.40
2018-07-28T06:07:44.956Z,24.40
2018-07-28T06:10:12.659Z,24.40
2018-07-28T06:12:40.314Z,24.50
2018-07-28T06:15:08.353Z,24.50
2018-07-28T06:17:35.984Z,24.60
2018-07-28T06:20:04.061Z,24.70
2018-07-28T06:22:31.736Z,24.70
2018-07-28T06:24:59.422Z,24.70
2018-07-28T06:27:27.102Z,24.90
2018-07-28T06:29:54.794Z,25.00
2018-07-28T06:32:22.491Z,25.10
2018-07-28T06:34:50.169Z,25.20
2018-07-28T06:37:17.839Z,25.20
2018-07-28T06:39:45.475Z,25.30
2018-07-28T06:42:13.198Z,25.40
2018-07-28T06:44:40.853Z,25.50
2018-07-28T06:47:08.525Z,25.60
2018-07-28T06:49:36.247Z,25.60
2018-07-28T06:52:04.070Z,25.70
2018-07-28T06:54:31.760Z,25.70
2018-07-28T06:56:59.423Z,25.80
2018-07-28T06:59:27.154Z,26.00
2018-07-28T07:01:54.872Z,26.10
2018-07-28T07:04:22.544Z,26.10
2018-07-28T07:06:50.267Z,26.10
2018-07-28T07:09:17.936Z,26.00
2018-07-28T07:11:45.671Z,25.90
2018-07-28T07:14:13.315Z,25.80
2018-07-28T07:16:40.995Z,25.90
2018-07-28T07:19:08.672Z,25.80
2018-07-28T07:21:36.361Z,25.70
2018-07-28T07:24:04.029Z,25.60
2018-07-28T07:26:31.740Z,25.40
2018-07-28T07:28:59.387Z,25.30
2018-07-28T07:31:27.039Z,25.30
2018-07-28T07:33:54.700Z,25.30
2018-07-28T07:36:22.359Z,25.30
2018-07-28T07:38:50.023Z,25.30
2018-07-28T07:41:17.648Z,25.30
2018-07-28T07:43:45.316Z,25.40
2018-07-28T07:46:12.969Z,25.50
2018-07-28T07:48:40.623Z,25.50
2018-07-28T07:51:08.303Z,25.60
2018-07-28T07:53:35.976Z,25.60
2018-07-28T07:56:03.750Z,25.60
2018-07-28T07:58:31.403Z,25.60
2018-07-28T08:00:59.087Z,25.60
2018-07-28T08:03:26.804Z,25.70
2018-07-28T08:05:54.458Z,25.70
2018-07-28T08:08:22.098Z,25.80
2018-07-28T08:10:49.836Z,26.00
2018-07-28T08:13:17.603Z,25.90
2018-07-28T08:15:45.305Z,26.10
2018-07-28T08:18:12.974Z,26.30
2018-07-28T08:20:40.659Z,26.40
2018-07-28T08:23:08.340Z,26.60
2018-07-28T08:25:36.049Z,26.60
2018-07-28T08:28:03.733Z,26.50
2018-07-28T08:30:31.428Z,26.50
2018-07-28T08:32:59.075Z,26.50
2018-07-28T08:35:26.767Z,26.40
2018-07-28T08:37:54.550Z,26.20
2018-07-28T08:40:25.168Z,26.10
2018-07-28T08:42:52.878Z,26.10
2018-07-28T08:45:21.232Z,26.00
2018-07-28T08:47:48.929Z,26.10
2018-07-28T08:50:16.584Z,26.10
2018-07-28T08:52:44.320Z,26.30
2018-07-28T08:55:12.020Z,26.30
2018-07-28T08:57:39.723Z,26.30
2018-07-28T09:00:07.952Z,26.30
2018-07-28T09:02:35.728Z,26.40
2018-07-28T09:05:04.049Z,26.40
2018-07-28T09:07:31.745Z,26.40
2018-07-28T09:10:00.139Z,26.40
2018-07-28T09:12:27.900Z,26.40
2018-07-28T09:14:55.580Z,26.50
2018-07-28T09:17:23.257Z,26.50
2018-07-28T09:19:50.940Z,26.50
2018-07-28T09:22:18.643Z,26.60
2018-07-28T15:17:41.783Z,27.80
2018-07-28T15:20:09.578Z,27.50
2018-07-28T15:22:47.067Z,27.40
2018-07-28T15:25:20.161Z,27.30
2018-07-28T15:27:59.568Z,27.40
2018-07-28T15:30:29.558Z,27.30
2018-07-28T15:32:57.356Z,27.40
2018-07-28T15:35:25.761Z,27.30
2018-07-28T15:37:53.457Z,27.40
2018-07-28T15:40:21.124Z,27.30
2018-07-28T15:42:48.795Z,27.30
2018-07-28T15:45:17.401Z,27.30
2018-07-28T15:47:45.918Z,27.20
2018-07-28T15:50:13.571Z,27.20
2018-07-28T15:52:41.326Z,27.10
2018-07-28T15:55:09.026Z,27.20
2018-07-28T15:57:36.771Z,27.20
2018-07-28T16:00:04.795Z,27.10
2018-07-28T16:02:32.537Z,27.10
2018-07-28T16:05:01.202Z,27.00
2018-07-28T16:07:28.913Z,27.10
2018-07-28T16:09:56.581Z,27.00
2018-07-28T16:12:24.324Z,27.00
2018-07-28T16:14:52.020Z,26.90
2018-07-28T16:17:19.757Z,26.80
2018-07-28T16:19:47.429Z,26.80
2018-07-28T16:22:15.140Z,26.70
2018-07-28T16:24:42.835Z,26.60
2018-07-28T16:27:10.585Z,26.50
2018-07-28T16:29:38.320Z,26.50
2018-07-28T16:32:06.111Z,26.60
2018-07-28T16:34:34.811Z,26.60
2018-07-28T16:37:02.582Z,26.60
2018-07-28T16:39:30.312Z,26.50
2018-07-28T16:41:58.069Z,26.30
2018-07-28T16:44:25.786Z,26.20
2018-07-28T16:46:53.483Z,26.10
2018-07-28T16:49:21.213Z,26.10
2018-07-28T16:51:49.031Z,26.30
2018-07-28T16:54:16.765Z,26.20
2018-07-28T16:56:44.425Z,26.10
2018-07-28T16:59:18.816Z,26.10
2018-07-28T17:01:46.526Z,26.10
2018-07-28T17:04:14.207Z,26.10
2018-07-28T17:06:41.970Z,26.10
2018-07-28T17:09:11.389Z,26.10
2018-07-28T17:11:39.496Z,26.10
2018-07-28T17:14:07.175Z,26.10
2018-07-28T17:16:34.880Z,26.10
2018-07-28T17:19:02.520Z,26.00
2018-07-28T17:21:30.242Z,25.90
2018-07-28T17:24:09.225Z,25.90
2018-07-28T17:26:36.991Z,26.00
2018-07-28T17:29:04.895Z,26.00
2018-07-28T17:31:42.801Z,26.00
2018-07-28T17:34:10.567Z,26.00
2018-07-28T17:36:38.359Z,26.00
2018-07-28T17:39:07.355Z,26.00
2018-07-28T17:41:35.107Z,25.80
2018-07-28T17:44:02.867Z,25.90
2018-07-28T17:46:30.684Z,25.90
2018-07-28T17:49:16.449Z,25.80
2018-07-28T17:51:48.477Z,25.80
2018-07-28T17:54:25.264Z,25.80
2018-07-28T17:56:53.813Z,25.80
2018-07-28T17:59:21.520Z,25.80
2018-07-28T18:01:49.305Z,25.80
2018-07-28T18:04:17.092Z,25.80
2018-07-28T18:06:44.762Z,25.80
2018-07-28T18:09:12.482Z,25.80
2018-07-28T18:11:40.179Z,25.80
2018-07-28T18:14:07.903Z,25.70
2018-07-28T18:16:35.624Z,25.60
2018-07-28T18:19:03.377Z,25.50
2018-07-28T18:21:31.175Z,25.50
2018-07-28T18:23:59.018Z,25.50
2018-07-28T18:26:26.858Z,25.50
2018-07-28T18:28:54.567Z,25.40
2018-07-28T18:31:22.281Z,25.40
2018-07-28T18:33:49.987Z,25.40
2018-07-28T18:36:17.747Z,25.50
2018-07-28T18:38:45.523Z,25.50
2018-07-28T18:41:13.249Z,25.50
2018-07-28T18:43:41.032Z,25.50
2018-07-28T18:46:08.715Z,25.50
2018-07-28T18:48:38.407Z,25.60
2018-07-28T18:51:06.327Z,25.70
2018-07-28T18:53:34.051Z,25.80
2018-07-28T18:56:01.742Z,25.90
2018-07-28T18:58:29.579Z,26.00
2018-07-28T19:00:57.297Z,26.10
2018-07-28T19:03:25.116Z,26.10
2018-07-28T19:05:53.095Z,26.20
2018-07-28T19:08:21.090Z,26.20
2018-07-28T19:10:49.513Z,26.20
2018-07-28T19:13:23.053Z,26.20
2018-07-28T19:15:50.752Z,26.10
2018-07-28T19:18:24.060Z,26.10
2018-07-28T19:20:51.740Z,26.00
2018-07-28T19:23:25.063Z,26.00
2018-07-28T19:25:52.812Z,26.00
2018-07-28T19:28:26.065Z,26.00
